Latest Weather Observations for Southern Cross Airport

IDW60801

Issued at 9:02 am WST Saturday 5 September 2015 (issued every 30 minutes, with the page automatically refreshed every 10 minutes)

About weather observations | Map of weather stations | Latest weather observations for WA | Other Formats
Station Details ID: 012320 Name: SOUTHERN CROSS AIRFIELD Lat: -31.24 Lon: 119.36 Height: 347.4 m
Data from the previous 72 hours. | See also: Recent months at Southern Cross Airport
Date/Time
WST
Temp
°C
App
Temp
°C
Dew
Point
Rel
Hum
%
Delta-T
°C
Wind Press
QNH
hPa
Press
MSL
hPa
Rain
since 9 am
mm
Dir
 
Spd
km/h
Gust
km/h
Spd
kts
Gust
kts
05/09:00am 15.1 11.1 10.3 73 2.6 WSW 22 32 12 17 1019.9 1019.7 0.0
05/08:30am 14.3 12.3 11.5 83 1.5 WSW 13 19 7 10 1020.0 1019.8 0.0
05/08:00am 13.1 11.2 11.7 91 0.8 W 13 19 7 10 1019.7 1019.5 0.0
05/07:30am 12.6 9.7 11.0 90 0.9 WSW 17 24 9 13 1019.1 1018.8 0.0
05/07:00am 12.9 10.6 10.4 85 1.3 W 13 17 7 9 1018.4 1018.1 0.0
05/06:30am 12.5 10.5 10.0 85 1.3 W 11 15 6 8 1018.1 1017.8 0.0
05/06:00am 12.1 10.4 9.8 86 1.2 NW 9 15 5 8 1017.8 1017.5 0.0
05/05:30am 11.4 11.2 9.0 85 1.2 CALM 0 0 0 0 1017.4 1017.2 0.0
05/05:00am 11.6 10.2 9.0 84 1.3 WNW 6 9 3 5 1017.2 1017.0 0.0
05/04:30am 12.5 11.2 9.3 81 1.6 WSW 6 9 3 5 1016.8 1016.5 0.0
05/04:00am 12.8 10.9 9.1 78 1.9 W 9 15 5 8 1016.7 1016.4 0.0
05/03:30am 12.9 10.1 8.4 74 2.3 W 13 17 7 9 1016.8 1016.5 0.0
05/03:00am 12.8 11.1 8.3 74 2.3 WSW 7 11 4 6 1016.7 1016.4 0.0
05/02:30am 13.2 11.7 8.3 72 2.5 WSW 6 9 3 5 1016.3 1016.0 0.0
05/02:00am 13.5 10.6 8.1 70 2.7 WSW 13 17 7 9 1016.8 1016.5 0.0
05/01:30am 13.5 11.3 7.9 69 2.8 WSW 9 13 5 7 1016.8 1016.5 0.0
05/01:00am 14.2 10.8 7.7 65 3.3 WSW 15 22 8 12 1016.5 1016.2 0.0
05/12:30am 14.5 9.4 7.5 63 3.5 WSW 24 32 13 17 1016.7 1016.4 0.0
05/12:00am 14.5 10.6 7.3 62 3.6 WSW 17 26 9 14 1016.4 1016.1 0.0
 
Date/Time
WST
Temp
°C
App
Temp
°C
Dew
Point
Rel
Hum
%
Delta-T
°C
Wind Press
QNH
hPa
Press
MSL
hPa
Rain
since 9 am
mm
Dir
 
Spd
km/h
Gust
km/h
Spd
kts
Gust
kts
04/11:30pm 14.3 9.9 6.6 60 3.8 WSW 19 22 10 12 1016.7 1016.4 0.0
04/11:00pm 14.5 10.4 6.1 57 4.1 WSW 17 22 9 12 1016.8 1016.5 0.0
04/10:30pm 14.2 10.2 5.0 54 4.4 WSW 15 22 8 12 1017.1 1016.9 0.0
04/10:00pm 14.3 9.7 3.5 48 5.0 W 17 22 9 12 1017.4 1017.2 0.0
04/09:30pm 14.2 10.2 3.1 47 5.1 W 13 19 7 10 1017.1 1016.9 0.0
04/09:00pm 14.4 10.0 2.6 45 5.3 W 15 19 8 10 1017.3 1017.1 0.0
04/08:30pm 13.2 9.3 3.3 51 4.5 WNW 13 15 7 8 1017.0 1016.7 0.0
04/08:00pm 13.7 10.5 2.9 48 4.9 WNW 9 11 5 6 1017.0 1016.7 0.0
04/07:30pm 14.5 10.3 1.8 42 5.7 WSW 13 17 7 9 1016.8 1016.5 0.0
04/07:00pm 15.9 11.2 1.2 37 6.5 WSW 15 20 8 11 1016.8 1016.5 0.0
04/06:30pm 17.2 12.5 0.8 33 7.3 WSW 15 19 8 10 1016.3 1016.0 0.0
04/06:00pm 18.4 12.9 0.5 30 8.0 WSW 19 24 10 13 1016.1 1015.8 0.0
04/05:30pm 20.0 14.5 0.5 27 8.9 W 19 26 10 14 1016.0 1015.7 0.0
04/05:00pm 21.1 15.6 0.9 26 9.3 W 19 28 10 15 1015.8 1015.5 0.0
04/04:30pm 22.1 16.5 1.2 25 9.8 W 20 28 11 15 1015.6 1015.3 0.0
04/04:00pm 22.7 16.6 0.5 23 10.3 WNW 22 30 12 16 1015.6 1015.3 0.0
04/03:30pm 23.1 17.1 0.9 23 10.4 WNW 22 33 12 18 1015.6 1015.3 0.0
04/03:00pm 23.0 17.4 1.4 24 10.2 W 20 28 11 15 1015.6 1015.3 0.0
04/02:30pm 23.3 18.0 1.6 24 10.3 WNW 19 33 10 18 1015.7 1015.4 0.0
04/02:00pm 23.5 17.0 0.6 22 10.7 WNW 24 37 13 20 1015.9 1015.6 0.0
04/01:30pm 23.8 17.4 0.8 22 10.8 W 24 33 13 18 1016.0 1015.7 0.0
04/01:00pm 23.6 18.7 1.9 24 10.4 WNW 17 24 9 13 1016.2 1015.9 0.0
04/12:30pm 23.0 17.2 0.2 22 10.6 WNW 20 32 11 17 1016.6 1016.3 0.0
04/12:00pm 23.0 18.4 1.4 24 10.2 NW 15 24 8 13 1016.9 1016.6 0.0
04/11:30am 23.1 17.8 2.0 25 10.1 NW 19 26 10 14 1017.1 1016.9 0.0
04/11:00am 21.5 16.1 1.2 26 9.5 NNW 19 28 10 15 1017.7 1017.4 0.0
04/10:30am 20.8 16.2 3.5 32 8.4 N 17 24 9 13 1018.1 1017.8 0.0
04/10:00am 19.6 12.9 1.6 30 8.3 N 26 35 14 19 1018.3 1018.0 0.0
04/09:55am 19.3 12.2 1.3 30 8.3 N 28 41 15 22 1018.3 1018.0 0.0
04/09:30am 17.7 13.2 2.1 35 7.2 NNW 15 20 8 11 1018.4 1018.1 0.0
04/09:00am 16.5 11.6 2.2 38 6.5 N 17 26 9 14 1018.6 1018.3 0.0
04/08:30am 14.6 9.8 2.8 45 5.4 N 17 24 9 13 1018.3 1018.0 0.0
04/08:00am 13.4 9.0 2.6 48 4.8 N 15 24 8 13 1018.1 1017.8 0.0
04/07:30am 11.7 8.0 2.5 53 4.1 NNE 11 17 6 9 1018.0 1017.7 0.0
04/07:00am 7.9 5.2 2.4 68 2.3 NNE 6 11 3 6 1017.9 1017.6 0.0
04/06:30am 5.8 2.6 1.0 71 1.9 NE 7 11 4 6 1017.8 1017.5 0.0
04/06:00am 6.0 2.9 1.3 72 1.9 ENE 7 9 4 5 1017.8 1017.5 0.0
04/05:30am 6.0 2.5 1.3 72 1.9 ENE 9 13 5 7 1017.9 1017.6 0.0
04/05:00am 6.5 3.0 1.2 69 2.2 ENE 9 11 5 6 1018.0 1017.7 0.0
04/04:30am 6.0 2.5 1.0 70 2.0 ENE 9 13 5 7 1018.1 1017.8 0.0
04/04:00am 6.2 3.1 1.3 71 2.0 E 7 9 4 5 1018.1 1017.8 0.0
04/03:30am 6.1 3.0 1.2 71 2.0 E 7 9 4 5 1018.2 1017.9 0.0
04/03:00am 6.5 4.7 1.4 70 2.1 CALM 0 0 0 0 1018.2 1017.9 0.0
04/02:30am 6.9 4.0 1.4 68 2.3 E 6 7 3 4 1018.4 1018.1 0.0
04/02:00am 7.2 4.3 1.3 66 2.4 E 6 7 3 4 1018.6 1018.3 0.0
04/01:30am 7.6 4.7 1.5 65 2.5 ENE 6 7 3 4 1018.8 1018.5 0.0
04/01:00am 6.7 5.0 2.0 72 2.0 CALM 0 0 0 0 1019.0 1018.7 0.0
04/12:30am 6.9 5.2 1.6 69 2.2 CALM 0 0 0 0 1019.2 1018.9 0.0
04/12:00am 7.8 5.7 1.4 64 2.6 NE 2 7 1 4 1019.4 1019.1 0.0
 
Date/Time
WST
Temp
°C
App
Temp
°C
Dew
Point
Rel
Hum
%
Delta-T
°C
Wind Press
QNH
hPa
Press
MSL
hPa
Rain
since 9 am
mm
Dir
 
Spd
km/h
Gust
km/h
Spd
kts
Gust
kts
03/11:30pm 9.2 6.2 1.1 57 3.4 NE 6 7 3 4 1019.5 1019.2 0.0
03/11:00pm 9.7 6.2 1.4 56 3.5 NE 9 11 5 6 1019.7 1019.5 0.0
03/10:30pm 12.5 7.5 1.2 46 4.9 ENE 17 20 9 11 1020.0 1019.8 0.0
03/10:00pm 12.8 8.1 0.9 44 5.1 E 15 22 8 12 1020.0 1019.8 0.0
03/09:30pm 13.1 7.9 0.2 41 5.5 E 17 20 9 11 1020.1 1019.9 0.0
03/09:00pm 12.8 8.4 0.2 42 5.3 E 13 19 7 10 1020.3 1020.1 0.0
03/08:30pm 11.3 7.4 1.0 49 4.4 ESE 11 13 6 7 1020.3 1020.1 0.0
03/08:00pm 11.6 7.0 1.3 49 4.4 ESE 15 19 8 10 1019.9 1019.7 0.0
03/07:30pm 11.6 7.5 2.1 52 4.2 ESE 13 17 7 9 1020.3 1020.1 0.0
03/07:00pm 13.1 8.9 1.8 46 5.0 ESE 13 17 7 9 1020.4 1020.2 0.0
03/06:30pm 14.3 10.2 2.2 44 5.4 ESE 13 17 7 9 1020.5 1020.3 0.0
03/06:00pm 15.7 12.6 1.1 37 6.5 SE 7 9 4 5 1020.7 1020.4 0.0
03/05:30pm 18.1 15.6 3.6 38 6.9 ENE 6 6 3 3 1020.7 1020.4 0.0
03/05:00pm 19.3 16.5 1.8 31 8.1 NNE 6 9 3 5 1020.7 1020.4 0.0
03/04:30pm 19.8 16.0 -0.8 25 9.1 NE 9 19 5 10 1020.4 1020.2 0.0
03/04:00pm 19.6 14.6 -0.9 25 9.0 N 15 20 8 11 1020.7 1020.4 0.0
03/03:30pm 20.0 16.2 -0.6 25 9.2 NNE 9 15 5 8 1020.8 1020.5 0.0
03/03:00pm 19.9 15.6 0.9 28 8.7 NNE 13 20 7 11 1020.8 1020.5 0.0
03/02:30pm 19.7 14.7 1.2 29 8.5 N 17 22 9 12 1020.8 1020.5 0.0
03/02:00pm 19.5 14.4 0.5 28 8.6 NNE 17 24 9 13 1020.9 1020.6 0.0
03/01:30pm 19.7 15.1 1.7 30 8.4 N 15 28 8 15 1021.2 1020.9 0.0
03/01:00pm 19.2 14.8 2.6 33 7.8 NNE 15 26 8 14 1021.4 1021.1 0.0
03/12:30pm 18.6 13.5 3.3 36 7.3 NNE 19 26 10 14 1022.2 1022.0 0.0
03/12:00pm 17.3 12.1 3.6 40 6.5 N 20 30 11 16 1022.6 1022.4 0.0
03/11:30am 16.7 11.7 3.4 41 6.2 NNE 19 32 10 17 1023.2 1023.0 0.0
03/11:00am 16.1 11.3 4.5 46 5.5 NNE 19 30 10 16 1023.6 1023.4 0.0
03/10:30am 15.2 10.4 4.6 49 5.0 NE 19 30 10 16 1024.0 1023.7 0.0
03/10:00am 14.3 9.9 4.9 53 4.4 ENE 17 32 9 17 1024.4 1024.1 0.0
03/09:30am 13.0 8.0 4.7 57 3.9 NE 20 24 11 13 1024.7 1024.5 0.0
03/09:00am 11.8 7.0 4.5 61 3.4 ENE 19 26 10 14 1025.0 1024.8 0.0
03/08:30am 10.5 6.4 4.4 66 2.8 ENE 15 22 8 12 1025.2 1025.0 0.0
03/08:00am 8.6 4.9 4.2 74 2.0 ENE 13 17 7 9 1025.2 1025.0 0.0
03/07:30am 7.1 2.9 3.7 79 1.5 E 15 20 8 11 1025.1 1024.9 0.0
03/07:00am 5.7 3.0 3.5 86 0.9 E 7 15 4 8 1024.9 1024.7 0.0
03/06:30am 3.8 0.9 2.5 91 0.5 SSE 7 9 4 5 1024.8 1024.6 0.0
03/06:00am 3.0 0.0 1.7 91 0.5 S 7 9 4 5 1024.7 1024.5 0.0
03/05:30am 3.1 -0.3 1.6 90 0.6 S 9 9 5 5 1024.4 1024.1 0.0
03/05:00am 3.6 0.6 2.1 90 0.6 S 7 9 4 5 1024.2 1023.9 0.0
03/04:30am 3.6 0.8 1.8 88 0.7 SSE 6 7 3 4 1023.9 1023.6 0.0
03/04:00am 3.9 0.5 2.1 88 0.7 SE 9 13 5 7 1024.0 1023.7 0.0
03/03:30am 4.1 0.7 2.0 86 0.9 SE 9 11 5 6 1024.0 1023.7 0.0
03/03:00am 4.0 0.3 2.2 88 0.7 S 11 15 6 8 1024.2 1023.9 0.0
03/02:30am 3.9 0.9 1.8 86 0.8 SSE 7 11 4 6 1024.4 1024.1 0.0
03/02:00am 4.9 0.8 2.4 84 1.0 SSE 13 15 7 8 1024.4 1024.1 0.0
03/01:30am 6.2 1.8 2.7 78 1.5 SE 15 19 8 10 1024.2 1023.9 0.0
03/01:00am 6.1 3.0 3.4 83 1.1 ESE 9 15 5 8 1024.4 1024.1 0.0
03/12:30am 4.2 0.8 1.9 85 0.9 SSE 9 11 5 6 1024.5 1024.2 0.0
03/12:00am 5.4 0.6 2.6 82 1.2 SSE 17 19 9 10 1024.4 1024.1 0.0
 
Date/Time
WST
Temp
°C
App
Temp
°C
Dew
Point
Rel
Hum
%
Delta-T
°C
Wind Press
QNH
hPa
Press
MSL
hPa
Rain
since 9 am
mm
Dir
 
Spd
km/h
Gust
km/h
Spd
kts
Gust
kts
02/11:30pm 3.0 -0.6 0.9 86 0.8 S 9 13 5 7 1024.7 1024.5 0.0
02/11:00pm 4.5 1.0 1.2 79 1.3 SSE 9 9 5 5 1025.0 1024.8 0.0
02/10:30pm 4.6 1.1 1.5 80 1.2 SSE 9 11 5 6 1025.2 1025.0 0.0
02/10:00pm 3.7 0.7 0.9 82 1.1 SSW 6 7 3 4 1025.3 1025.1 0.0
02/09:30pm 4.6 2.9 1.6 81 1.2 CALM 0 0 0 0 1025.4 1025.2 0.0
02/09:00pm 5.8 2.4 2.1 77 1.5 SE 9 11 5 6 1025.4 1025.2 0.0
02/08:30pm 6.0 1.5 2.1 76 1.6 SE 15 17 8 9 1025.3 1025.1 0.0
02/08:00pm 6.4 1.5 2.3 75 1.7 SE 17 19 9 10 1025.1 1024.9 0.0
02/07:30pm 7.5 3.0 2.2 69 2.2 SE 15 17 8 9 1025.1 1024.9 0.0
02/07:00pm 7.9 3.4 2.0 66 2.5 SE 15 17 8 9 1024.9 1024.7 0.0
02/06:30pm 8.8 5.1 2.2 63 2.8 SSE 11 13 6 7 1024.7 1024.5 0.0
02/06:00pm 10.0 6.3 2.1 58 3.4 SSE 11 15 6 8 1024.4 1024.1 0.0
02/05:30pm 11.3 6.8 2.1 53 4.0 SE 15 19 8 10 1024.2 1023.9 0.0
02/05:00pm 12.3 7.8 2.2 50 4.4 SE 15 20 8 11 1023.8 1023.5 0.0
02/04:30pm 12.6 8.4 1.9 48 4.7 SE 13 20 7 11 1023.9 1023.6 0.0
02/04:00pm 12.9 8.0 2.2 48 4.7 SE 17 20 9 11 1024.0 1023.7 0.0
02/03:30pm 12.6 8.0 1.6 47 4.8 ESE 15 20 8 11 1024.0 1023.7 0.0
02/03:00pm 12.5 8.8 2.1 49 4.6 E 11 15 6 8 1024.2 1023.9 0.0
02/02:30pm 12.3 7.9 2.5 51 4.4 SE 15 20 8 11 1024.0 1023.7 0.0
02/02:00pm 12.5 7.7 2.4 50 4.5 ESE 17 26 9 14 1023.9 1023.6 0.0
02/01:30pm 12.2 7.4 2.4 51 4.3 ESE 17 24 9 13 1024.0 1023.7 0.0
02/01:00pm 11.8 6.9 1.7 50 4.4 ESE 17 22 9 12 1024.3 1024.0 0.0
02/12:30pm 11.7 6.5 2.5 53 4.1 SE 19 24 10 13 1024.8 1024.6 0.0
02/12:00pm 11.4 6.5 2.2 53 4.0 ESE 17 24 9 13 1025.2 1025.0 0.0
02/11:30am 10.9 6.4 2.0 54 3.9 ESE 15 20 8 11 1025.8 1025.6 0.0
02/11:00am 11.4 6.2 2.7 55 3.8 ESE 19 26 10 14 1026.0 1025.8 0.0
02/10:30am 10.4 5.2 2.3 57 3.5 SE 19 30 10 16 1026.3 1026.1 0.0
02/10:00am 9.9 4.5 2.3 59 3.3 SSE 20 26 11 14 1026.4 1026.2 0.0
02/09:30am 9.5 5.0 2.4 61 3.1 SE 15 20 8 11 1026.8 1026.5 0.0

Other Formats:

Comma delimited format used in spreadsheet applications
http://www.bom.gov.au/fwo/IDW60801/IDW60801.95634.axf

JavaScript Object Notation format (JSON) in row-major order
http://www.bom.gov.au/fwo/IDW60801/IDW60801.95634.json